Time;durP1;ratioP1;P1;durP2;ratioP2;P2;SDS_P1;SDS_P2;PMS_P1;PMS_P2;Temp;Humidity;BMP_temperature;BMP_pressure;BME280_temperature;BME280_humidity;BME280_pressure;Samples;Min_cycle;Max_cycle;Signal;HPM_P1;HPM_P2
2023/09/22 00:01:30;;;;;;;3.22;2.92;;;;;;;;;;4717408;30;20140;-87
2023/09/22 00:03:56;;;;;;;3.95;2.80;;;;;;;;;;4717747;30;20056;-87
2023/09/22 00:06:22;;;;;;;3.03;2.50;;;;;;;;;;4703349;30;20045;-87
2023/09/22 00:08:48;;;;;;;5.50;2.90;;;;;;;;;;4717676;30;20053;-87
2023/09/22 00:11:17;;;;;;;3.28;2.55;;;;;;;;;;4717679;30;20056;-86
2023/09/22 00:13:43;;;;;;;3.22;2.33;;;;;;;;;;4732268;30;20053;-87
2023/09/22 00:16:09;;;;;;;3.35;2.70;;;;;;;;;;4718391;30;20166;-88
2023/09/22 00:18:36;;;;;;;3.90;2.80;;;;;;;;;;4717821;30;20145;-87
2023/09/22 00:21:04;;;;;;;3.00;2.70;;;;;;;;;;4717921;30;20103;-88
2023/09/22 00:23:30;;;;;;;3.42;2.30;;;;;;;;;;4703265;30;20053;-87
2023/09/22 00:25:59;;;;;;;2.60;2.40;;;;;;;;;;4717739;30;20426;-88
2023/09/22 00:28:25;;;;;;;2.45;2.20;;;;;;;;;;4717829;30;20079;-88
2023/09/22 00:30:51;;;;;;;2.97;2.67;;;;;;;;;;4717548;30;20108;-86
2023/09/22 00:33:17;;;;;;;2.85;2.35;;;;;;;;;;4703511;30;20107;-87
2023/09/22 00:35:43;;;;;;;2.67;2.40;;;;;;;;;;4717844;30;20099;-88
2023/09/22 00:38:10;;;;;;;4.65;2.63;;;;;;;;;;4717430;30;20057;-88
2023/09/22 00:40:37;;;;;;;2.90;2.22;;;;;;;;;;4702872;30;20057;-88
2023/09/22 00:43:06;;;;;;;2.33;2.13;;;;;;;;;;4702810;30;20569;-88
2023/09/22 00:45:33;;;;;;;3.20;1.95;;;;;;;;;;4717360;30;20546;-87
2023/09/22 00:47:59;;;;;;;5.65;2.33;;;;;;;;;;4717187;30;20049;-89
2023/09/22 00:50:25;;;;;;;2.45;2.25;;;;;;;;;;4702933;30;20056;-87
2023/09/22 00:52:52;;;;;;;2.60;2.38;;;;;;;;;;4717185;30;20064;-87
2023/09/22 00:55:18;;;;;;;2.60;2.30;;;;;;;;;;4732002;30;20076;-89
2023/09/22 00:57:45;;;;;;;4.25;3.40;;;;;;;;;;4731692;30;20058;-89
2023/09/22 01:00:12;;;;;;;8.30;5.28;;;;;;;;;;4716480;30;20061;-89
2023/09/22 01:02:38;;;;;;;7.85;6.53;;;;;;;;;;4718013;30;20059;-87
2023/09/22 01:05:07;;;;;;;8.57;6.43;;;;;;;;;;4702391;30;20052;-88
2023/09/22 01:07:34;;;;;;;10.10;7.38;;;;;;;;;;4702017;30;20115;-88
2023/09/22 01:10:18;;;;;;;13.07;7.85;;;;;;;;;;4716947;30;20133;-86
2023/09/22 01:12:45;;;;;;;12.10;9.00;;;;;;;;;;4731361;30;20084;-87
2023/09/22 01:15:11;;;;;;;15.88;8.45;;;;;;;;;;4702230;30;20053;-87
2023/09/22 01:17:37;;;;;;;11.98;8.95;;;14.40;28.80;;;;;;4730921;30;20132;-87
2023/09/22 01:20:07;;;;;;;11.95;8.85;;;;;;;;;;4702200;30;20111;-87
2023/09/22 01:22:34;;;;;;;14.57;9.55;;;;;;;;;;4716660;30;20511;-87
2023/09/22 01:25:00;;;;;;;11.63;8.02;;;;;;;;;;4701843;30;20505;-87
2023/09/22 01:27:26;;;;;;;14.38;9.32;;;;;;;;;;4716274;30;20060;-87
2023/09/22 01:29:52;;;;;;;12.00;8.52;;;;;;;;;;4716292;30;20057;-86
2023/09/22 01:32:18;;;;;;;13.98;9.48;;;;;;;;;;4701667;30;20057;-87
2023/09/22 01:34:44;;;;;;;13.57;9.20;;;;;;;;;;4701763;30;20052;-87
2023/09/22 01:37:10;;;;;;;14.25;9.30;;;;;;;;;;4716476;30;20064;-88
2023/09/22 01:39:37;;;;;;;17.80;10.55;;;;;;;;;;4717142;30;20106;-91
2023/09/22 01:42:03;;;;;;;18.98;9.93;;;;;;;;;;4703434;30;20508;-90
2023/09/22 01:44:30;;;;;;;14.85;10.40;;;;;;;;;;4717766;30;20057;-92
2023/09/22 01:46:56;;;;;;;14.23;9.93;;;;;;;;;;4717771;30;20100;-91
2023/09/22 01:49:22;;;;;;;13.35;10.40;;;;;;;;;;4717074;30;20125;-91
2023/09/22 01:51:48;;;;;;;16.60;10.77;;;;;;;;;;4716956;30;20061;-91
2023/09/22 01:54:14;;;;;;;17.20;11.55;;;;;;;;;;4702392;30;20052;-90
2023/09/22 01:56:40;;;;;;;16.83;12.55;;;;;;;;;;4716930;30;20068;-91
2023/09/22 01:59:07;;;;;;;15.05;11.70;;;;;;;;;;4702144;30;20424;-90
2023/09/22 02:01:33;;;;;;;16.70;12.32;;;;;;;;;;4716534;30;20122;-91
2023/09/22 02:04:01;;;;;;;18.88;13.77;;;;;;;;;;4701929;30;20056;-90
2023/09/22 02:06:28;;;;;;;18.10;13.00;;;;;;;;;;4716192;30;20144;-89
2023/09/22 02:08:54;;;;;;;21.27;14.93;;;;;;;;;;4730975;30;20049;-90
2023/09/22 02:11:20;;;;;;;21.75;14.52;;;;;;;;;;4715410;30;20088;-90
2023/09/22 02:13:47;;;;;;;25.30;14.55;;;;;;;;;;4716111;30;20111;-89
2023/09/22 02:16:14;;;;;;;21.00;13.93;;;;;;;;;;4701854;30;20423;-89
2023/09/22 02:18:40;;;;;;;22.38;15.68;;;;;;;;;;4701360;30;20057;-89
2023/09/22 02:21:06;;;;;;;20.67;15.23;;;;;;;;;;4730113;30;20056;-89
2023/09/22 02:23:32;;;;;;;22.50;14.98;;;;;;;;;;4701302;30;20085;-88
2023/09/22 02:26:06;;;;;;;23.88;15.32;;;;;;;;;;4730256;30;20041;-87
2023/09/22 02:28:32;;;;;;;24.92;16.00;;;;;;;;;;4700964;30;20076;-86
2023/09/22 02:30:58;;;;;;;21.58;15.35;;;;;;;;;;4715655;30;20107;-86
2023/09/22 02:33:25;;;;;;;21.15;15.15;;;;;;;;;;4730186;30;20041;-86
2023/09/22 02:35:51;;;;;;;25.95;15.15;;;;;;;;;;4700980;30;20260;-87
2023/09/22 02:38:17;;;;;;;22.90;16.08;;;;;;;;;;4716909;30;20092;-86
2023/09/22 02:40:45;;;;;;;22.15;15.75;;;;;;;;;;4701030;30;20053;-87
2023/09/22 02:43:11;;;;;;;20.02;14.40;;;;;;;;;;4714936;30;20067;-86
2023/09/22 02:45:38;;;;;;;22.58;15.32;;;;;;;;;;4715382;30;20156;-86
2023/09/22 02:48:04;;;;;;;22.30;16.40;;;;;;;;;;4716420;30;20053;-87
2023/09/22 02:50:31;;;;;;;23.10;15.70;;;;;;;;;;4700931;30;20049;-87
2023/09/22 02:52:57;;;;;;;23.77;15.40;;;;;;;;;;4700657;30;20060;-86
2023/09/22 02:55:23;;;;;;;21.60;13.70;;;;;;;;;;4714927;30;20053;-87
2023/09/22 02:57:50;;;;;;;18.48;13.48;;;;;;;;;;4700508;30;20057;-87
2023/09/22 03:00:20;;;;;;;18.20;13.32;;;;;;;;;;4715461;30;20061;-89
2023/09/22 03:02:46;;;;;;;16.33;12.65;;;;;;;;;;4700791;30;20065;-88
2023/09/22 03:05:16;;;;;;;18.33;12.80;;;;;;;;;;4729835;30;20135;-89
2023/09/22 03:07:42;;;;;;;16.25;11.77;;;;;;;;;;4701139;30;20466;-90
2023/09/22 03:10:10;;;;;;;17.73;11.57;;;;;;;;;;4716104;30;20095;-89
2023/09/22 03:12:36;;;;;;;16.30;11.23;;;;;;;;;;4715476;30;20050;-89
2023/09/22 03:15:04;;;;;;;16.95;12.35;;;;;;;;;;4715892;30;20057;-88
2023/09/22 03:17:30;;;;;;;18.60;12.27;;;;;;;;;;4730358;30;20045;-89
2023/09/22 03:19:59;;;;;;;14.90;11.32;;;;;;;;;;4701170;30;20068;-88
2023/09/22 03:22:26;;;;;;;15.40;11.02;;;;;;;;;;4716522;30;20060;-88
2023/09/22 03:24:52;;;;;;;15.45;10.55;;;;;;;;;;4719063;30;20057;-89
2023/09/22 03:27:18;;;;;;;16.17;10.75;;;;;;;;;;4704628;30;20053;-89
2023/09/22 03:29:44;;;;;;;15.65;9.73;;;;;;;;;;4704109;30;20053;-88
2023/09/22 03:32:10;;;;;;;15.75;10.60;;;;;;;;;;4718772;30;20053;-89
2023/09/22 03:34:36;;;;;;;11.77;8.40;;;;;;;;;;4718790;30;20045;-89
2023/09/22 03:37:08;;;;;;;12.65;8.27;;;;;;;;;;4718350;30;20059;-89
2023/09/22 03:39:35;;;;;;;11.60;8.23;;;;;;;;;;4718716;30;20050;-88
2023/09/22 03:42:01;;;;;;;14.52;8.88;;;;;;;;;;4732727;30;20057;-87
2023/09/22 03:44:28;;;;;;;12.18;8.93;;;;;;;;;;4732678;30;20053;-86
2023/09/22 03:46:54;;;;;;;12.82;8.90;;;;;;;;;;4703600;30;20059;-86
2023/09/22 03:49:20;;;;;;;11.02;7.68;;;;;;;;;;4703714;30;20053;-86
2023/09/22 03:51:46;;;;;;;11.13;7.63;;;;;;;;;;4703308;30;20067;-86
2023/09/22 03:54:12;;;;;;;12.10;7.70;;;;;;;;;;4703492;30;20057;-86
2023/09/22 03:56:38;;;;;;;12.90;8.00;;;;;;;;;;4717320;30;20155;-87
2023/09/22 03:59:05;;;;;;;11.68;8.38;;;;;;;;;;4717774;30;20053;-87
2023/09/22 04:01:32;;;;;;;11.27;8.15;;;;;;;;;;4703233;30;20096;-87
2023/09/22 04:03:58;;;;;;;12.73;9.40;;;;;;;;;;4703661;30;20107;-87
2023/09/22 04:06:25;;;;;;;12.35;9.57;;;;;;;;;;4718046;30;20088;-87
2023/09/22 04:08:51;;;;;;;13.82;8.65;;;;;;;;;;4702878;30;20092;-87
2023/09/22 04:11:17;;;;;;;14.23;8.43;;;;;;;;;;4703102;30;20053;-87
2023/09/22 04:13:46;;;;;;;13.65;8.30;;;;;;;;;;4703180;30;20048;-87
2023/09/22 04:16:12;;;;;;;13.55;8.38;;;;;;;;;;4703283;30;20407;-87
2023/09/22 04:18:39;;;;;;;14.15;8.65;;;;;;;;;;4703262;30;20053;-87
2023/09/22 04:21:07;;;;;;;11.90;8.57;;;;;;;;;;4717199;30;20045;-88
2023/09/22 04:23:34;;;;;;;19.10;9.38;;;;;;;;;;4703126;30;20093;-87
2023/09/22 04:26:05;;;;;;;12.05;8.63;;;;;;;;;;4717342;30;20149;-87
2023/09/22 04:28:31;;;;;;;13.13;8.85;;;;;;;;;;4717333;30;20337;-87
2023/09/22 04:31:00;;;;;;;14.68;10.32;;;;;;;;;;4702886;30;20049;-87
2023/09/22 04:33:26;;;;;;;14.55;9.10;;;;;;;;;;4717024;30;20060;-87
2023/09/22 04:35:52;;;;;;;12.98;9.50;;;;;;;;;;4702422;30;20143;-87
2023/09/22 04:38:19;;;;;;;14.50;9.23;;;;;;;;;;4717268;30;20043;-87
2023/09/22 04:40:45;;;;;;;13.35;8.73;;;;;;;;;;4703014;30;20049;-86
2023/09/22 04:43:12;;;;;;;18.95;10.52;;;;;;;;;;4717101;30;20060;-88
2023/09/22 04:45:40;;;;;;;15.05;9.88;;;;;;;;;;4717666;30;20132;-89
2023/09/22 04:48:07;;;;;;;15.35;11.10;;;;;;;;;;4717383;30;20063;-89
2023/09/22 04:50:34;;;;;;;19.10;10.93;;;;;;;;;;4702779;30;20504;-88
2023/09/22 04:53:00;;;;;;;16.10;10.82;;;;;;;;;;4702542;30;20071;-89
2023/09/22 04:55:29;;;;;;;18.77;11.98;;;;;;;;;;4702276;30;20539;-88
2023/09/22 04:57:58;;;;;;;17.85;11.65;;;;;;;;;;4702109;30;20073;-88
2023/09/22 05:00:24;;;;;;;20.88;12.73;;;;;;;;;;4732036;30;20063;-90
2023/09/22 05:02:54;;;;;;;19.70;12.85;;;;;;;;;;4731624;30;20045;-90
2023/09/22 05:05:22;;;;;;;21.23;13.32;;;;;;;;;;4717111;30;20057;-89
2023/09/22 05:07:50;;;;;;;24.35;14.60;;;;;;;;;;4702731;30;20060;-89
2023/09/22 05:10:17;;;;;;;22.52;15.10;;;;;;;;;;4702888;30;20136;-89
2023/09/22 05:12:45;;;;;;;23.27;15.27;;;;;;;;;;4718344;30;20089;-90
2023/09/22 05:15:11;;;;;;;24.02;15.15;;;;;;;;;;4731592;30;20053;-89
2023/09/22 05:17:37;;;;;;;24.23;16.38;;;;;;;;;;4716868;30;20060;-89
2023/09/22 05:20:05;;;;;;;23.40;15.40;;;;;;;;;;4716705;30;20118;-89
2023/09/22 05:22:31;;;;;;;25.40;15.90;;;;;;;;;;4716079;30;20124;-89
2023/09/22 05:24:57;;;;;;;22.02;16.20;;;;;;;;;;4716496;30;20049;-89
2023/09/22 05:27:26;;;;;;;32.63;15.73;;;;;;;;;;4702251;30;20149;-87
2023/09/22 05:29:53;;;;;;;24.98;15.18;;;;;;;;;;4702311;30;20101;-87
2023/09/22 05:32:20;;;;;;;23.95;14.35;;;;;;;;;;4716378;30;20622;-87
2023/09/22 05:34:46;;;;;;;24.85;14.75;;;;;;;;;;4716299;30;20049;-88
2023/09/22 05:37:12;;;;;;;26.42;14.45;;;;;;;;;;4701810;30;20061;-87
2023/09/22 05:39:38;;;;;;;20.00;13.77;;;;;;;;;;4717842;30;20132;-87
2023/09/22 05:42:06;;;;;;;20.67;14.02;;;;;;;;;;4701513;30;20089;-87
2023/09/22 05:44:32;;;;;;;20.42;14.02;;;;;;;;;;4701866;30;20059;-87
2023/09/22 05:46:59;;;;;;;21.48;13.13;;;;;;;;;;4715916;30;20049;-87
2023/09/22 05:49:27;;;;;;;23.45;14.00;;;;;;;;;;4716274;30;20084;-87
2023/09/22 05:51:53;;;;;;;22.67;13.30;;;;;;;;;;4716040;30;20508;-86
2023/09/22 05:54:19;;;;;;;22.30;13.82;;;;;;;;;;4701554;30;20225;-86
2023/09/22 05:56:46;;;;;;;20.50;13.88;;;;;;;;;;4715768;30;20071;-86
2023/09/22 05:59:12;;;;;;;23.15;14.15;;;;;;;;;;4716208;30;20104;-87
2023/09/22 06:01:38;;;;;;;19.52;13.55;;;;;;;;;;4716041;30;20490;-86
2023/09/22 06:04:05;;;;;;;20.35;13.07;;;;;;;;;;4716273;30;20135;-87
2023/09/22 06:06:34;;;;;;;22.60;14.02;;;;;;;;;;4716050;30;20550;-87
2023/09/22 06:09:00;;;;;;;28.15;15.88;;;;;;;;;;4701934;30;20495;-86
2023/09/22 06:11:27;;;;;;;26.52;15.80;;;;;;;;;;4715966;30;20061;-87
2023/09/22 06:13:53;;;;;;;26.77;16.77;;;;;;;;;;4701168;30;20522;-87
2023/09/22 06:16:19;;;;;;;26.55;15.90;;;;;;;;;;4701371;30;20151;-87
2023/09/22 06:18:45;;;;;;;27.13;17.08;;;;;;;;;;4715530;30;20053;-88
2023/09/22 06:21:12;;;;;;;28.25;18.08;;;;;;;;;;4700635;30;20041;-87
2023/09/22 06:23:38;;;;;;;26.10;16.73;;;;;;;;;;4701147;30;20419;-87
2023/09/22 06:26:05;;;;;;;31.85;17.27;;;13.50;40.80;;;;;;4715292;30;20049;-87
2023/09/22 06:28:32;;;;;;;26.23;16.52;;;;;;;;;;4717643;30;20095;-87
2023/09/22 06:31:02;;;;;;;23.48;15.82;;;;;;;;;;4717115;30;20044;-87
2023/09/22 06:33:28;;;;;;;30.92;15.57;;;;;;;;;;4709979;30;20056;-87
2023/09/22 06:35:58;;;;;;;28.58;17.52;;;;;;;;;;4702332;30;20044;-86
2023/09/22 06:38:24;;;;;;;30.35;16.90;;;;;;;;;;4699781;30;20057;-87
2023/09/22 06:40:55;;;;;;;28.08;16.13;;;;;;;;;;4700407;30;20519;-87
2023/09/22 06:43:23;;;;;;;29.88;16.55;;;;;;;;;;4700817;30;20415;-87
2023/09/22 06:45:53;;;;;;;28.13;16.63;;;;;;;;;;4692137;30;20052;-87
2023/09/22 06:48:25;;;;;;;27.83;17.88;;;13.40;40.00;;;;;;4703494;30;20056;-87
2023/09/22 06:50:52;;;;;;;32.88;18.08;;;;;;;;;;4689991;30;20055;-87
2023/09/22 06:53:24;;;;;;;26.70;16.30;;;;;;;;;;4703565;30;20060;-87
2023/09/22 06:55:50;;;;;;;28.95;16.63;;;;;;;;;;4703208;30;20521;-87
2023/09/22 06:58:16;;;;;;;27.67;16.60;;;;;;;;;;4702937;30;20096;-87
2023/09/22 07:00:42;;;;;;;31.15;16.02;;;;;;;;;;4715944;30;20044;-87
2023/09/22 07:03:09;;;;;;;32.35;17.27;;;;;;;;;;4683475;30;20048;-87
2023/09/22 07:05:35;;;;;;;31.08;16.35;;;;;;;;;;4691609;30;20048;-87
2023/09/22 07:08:03;;;;;;;28.25;16.23;;;;;;;;;;4690821;30;20057;-86
2023/09/22 07:10:30;;;;;;;25.95;16.23;;;;;;;;;;4691137;30;20529;-86
2023/09/22 07:12:58;;;;;;;25.17;15.35;;;;;;;;;;4692458;30;20057;-87
2023/09/22 07:15:24;;;;;;;24.98;16.33;;;;;;;;;;4678504;30;20504;-87
2023/09/22 07:17:51;;;;;;;27.27;16.73;;;;;;;;;;4706181;30;20115;-87
2023/09/22 07:20:17;;;;;;;27.55;15.10;;;;;;;;;;4692256;30;20723;-87
2023/09/22 07:22:44;;;;;;;25.25;15.82;;;;;;;;;;4721466;30;20082;-87
2023/09/22 07:25:11;;;;;;;26.33;14.65;;;;;;;;;;4691507;30;20061;-87
2023/09/22 07:27:39;;;;;;;28.13;14.75;;;;;;;;;;4707349;30;20482;-87
2023/09/22 07:30:09;;;;;;;25.98;15.13;;;;;;;;;;4706583;30;20061;-87
2023/09/22 07:32:35;;;;;;;22.20;13.48;;;;;;;;;;4678315;30;20087;-86
2023/09/22 07:35:02;;;;;;;24.63;14.35;;;;;;;;;;4706312;30;20071;-86
2023/09/22 07:37:30;;;;;;;24.83;14.40;;;;;;;;;;4692242;30;20099;-87
2023/09/22 07:39:56;;;;;;;24.75;13.25;;;;;;;;;;4722186;30;20053;-87
2023/09/22 07:42:22;;;;;;;25.45;14.07;;;;;;;;;;4706843;30;20048;-86
2023/09/22 07:44:48;;;;;;;17.52;12.45;;;;;;;;;;4705589;30;20076;-87
2023/09/22 07:47:15;;;;;;;19.42;12.43;;;;;;;;;;4705396;30;20044;-87
2023/09/22 07:49:42;;;;;;;24.42;12.82;;;;;;;;;;4692050;30;20068;-86
2023/09/22 07:52:11;;;;;;;20.25;13.25;;;;;;;;;;4706203;30;20068;-87
2023/09/22 07:54:38;;;;;;;16.35;11.68;;;;;;;;;;4706606;30;20052;-86
2023/09/22 07:57:04;;;;;;;20.33;12.23;;;;;;;;;;4706203;30;20531;-87
2023/09/22 07:59:30;;;;;;;19.23;10.98;;;;;;;;;;4692245;30;20114;-87
2023/09/22 08:01:59;;;;;;;14.75;10.68;;;;;;;;;;4690112;30;20049;-88
2023/09/22 08:04:26;;;;;;;19.30;11.80;;;;;;;;;;4707241;30;20056;-89
2023/09/22 08:06:52;;;;;;;16.98;10.77;;;;;;;;;;4706974;30;20053;-88
2023/09/22 08:09:20;;;;;;;16.95;9.95;;;;;;;;;;4677776;30;20060;-88
2023/09/22 08:11:46;;;;;;;16.85;10.43;;;;;;;;;;4695024;30;20507;-89
2023/09/22 08:14:12;;;;;;;16.40;10.90;;;;;;;;;;4708229;30;20049;-88
2023/09/22 08:16:39;;;;;;;17.08;10.15;;;;;;;;;;4694890;30;20056;-89
2023/09/22 08:19:11;;;;;;;16.05;10.15;;;;;;;;;;4680514;30;20056;-91
2023/09/22 08:21:38;;;;;;;14.27;9.60;;;;;;;;;;4693943;30;20073;-89
2023/09/22 08:24:05;;;;;;;22.95;10.40;;;;;;;;;;4694286;30;20195;-89
2023/09/22 08:26:31;;;;;;;15.80;9.80;;;;;;;;;;4694006;30;20049;-89
2023/09/22 08:28:57;;;;;;;16.55;10.07;;;;;;;;;;4694228;30;20872;-89
2023/09/22 08:31:29;;;;;;;17.42;10.82;;;;;;;;;;4708567;30;20143;-89
2023/09/22 08:33:58;;;;;;;12.45;9.20;;;;;;;;;;4708306;30;20600;-87
2023/09/22 08:36:24;;;;;;;16.30;9.98;;;;;;;;;;4724494;30;20552;-87
2023/09/22 08:38:51;;;;;;;12.68;9.48;;;;;;;;;;4694291;30;20453;-87
2023/09/22 08:41:17;;;;;;;16.50;10.15;;;;;;;;;;4708440;30;20067;-86
2023/09/22 08:43:47;;;;;;;15.70;10.40;;;;;;;;;;4707521;30;20056;-87
2023/09/22 08:46:14;;;;;;;14.70;8.93;;;;;;;;;;4707620;30;20106;-86
2023/09/22 08:48:40;;;;;;;12.50;9.65;;;;;;;;;;4707577;30;20057;-87
2023/09/22 08:51:06;;;;;;;17.27;9.15;;;;;;;;;;4723927;30;20052;-87
2023/09/22 08:53:33;;;;;;;16.27;10.75;;;;;;;;;;4723518;30;20045;-87
2023/09/22 08:55:59;;;;;;;13.15;9.63;;;;;;;;;;4679776;30;20079;-88
2023/09/22 08:58:25;;;;;;;11.90;9.70;;;;;;;;;;4706751;30;20681;-87
2023/09/22 09:00:55;;;;;;;13.00;9.75;;;;;;;;;;4723557;30;20550;-86
2023/09/22 09:03:21;;;;;;;13.27;9.52;;;;;;;;;;4723806;30;20084;-87
2023/09/22 09:05:49;;;;;;;17.02;10.45;;;;;;;;;;4708326;30;20491;-86
2023/09/22 09:08:17;;;;;;;14.23;10.82;;;;;;;;;;4693650;30;20056;-87
2023/09/22 09:10:44;;;;;;;14.05;10.60;;;;;;;;;;4692767;30;20499;-86
2023/09/22 09:13:14;;;;;;;14.13;9.90;;;;;;;;;;4721495;30;20138;-87
2023/09/22 09:15:42;;;;;;;13.98;8.55;;;;;;;;;;4708222;30;20052;-86
2023/09/22 09:18:11;;;;;;;12.95;8.40;;;;;;;;;;4693226;30;20053;-86
2023/09/22 09:20:40;;;;;;;12.07;8.70;;;;;;;;;;4694251;30;20055;-87
2023/09/22 09:23:22;;;;;;;10.10;7.07;;;;;;;;;;4692305;30;20135;-86
2023/09/22 09:25:50;;;;;;;9.02;6.38;;;;;;;;;;4692237;30;20056;-87
2023/09/22 09:28:17;;;;;;;11.80;6.65;;;;;;;;;;4693464;30;20519;-87
2023/09/22 09:30:48;;;;;;;7.35;6.35;;;;;;;;;;4679881;30;20403;-88
2023/09/22 09:33:15;;;;;;;7.20;5.63;;;;;;;;;;4707599;30;20048;-88
2023/09/22 09:35:42;;;;;;;9.85;6.53;;;;;;;;;;4693126;30;20063;-87
2023/09/22 09:38:08;;;;;;;7.85;5.57;;;;;;;;;;4708108;30;20057;-88
2023/09/22 09:40:38;;;;;;;7.03;5.88;;;;;;;;;;4722936;30;20056;-88
2023/09/22 09:43:10;;;;;;;6.03;5.22;;;;;;;;;;4692174;30;20072;-88
2023/09/22 09:45:41;;;;;;;4.75;4.25;;;;;;;;;;4707665;30;20830;-87
2023/09/22 09:48:10;;;;;;;7.40;4.07;;;;;;;;;;4707387;30;20060;-87
2023/09/22 09:50:37;;;;;;;5.82;3.60;;;;;;;;;;4700716;30;20147;-87
2023/09/22 09:53:13;;;;;;;4.68;3.38;;;;;;;;;;4722843;30;20044;-87
2023/09/22 09:55:42;;;;;;;6.03;2.78;;;;;;;;;;4707535;30;20524;-87
2023/09/22 09:58:09;;;;;;;3.00;2.70;;;;;;;;;;4707550;30;20542;-87
2023/09/22 10:00:36;;;;;;;3.50;2.95;;;;;;;;;;4692973;30;20799;-86
2023/09/22 10:03:02;;;;;;;2.95;2.67;;;;;;;;;;4690884;30;20395;-87
2023/09/22 10:05:28;;;;;;;4.00;2.72;;;;;;;;;;4678120;30;20499;-87
2023/09/22 10:07:56;;;;;;;2.60;2.38;;;;;;;;;;4692997;30;20135;-88
2023/09/22 10:10:23;;;;;;;3.47;2.33;;;;;;;;;;4692682;30;20051;-87
2023/09/22 10:12:49;;;;;;;4.00;2.30;;;;;;;;;;4707297;30;20537;-87
2023/09/22 10:15:15;;;;;;;2.42;2.20;;;;;;;;;;4705872;30;20135;-87
2023/09/22 10:17:42;;;;;;;6.90;2.50;;;;;;;;;;4724531;30;20048;-87
2023/09/22 10:20:12;;;;;;;2.92;2.42;;;;;;;;;;4693105;30;20964;-87
2023/09/22 10:22:39;;;;;;;6.03;2.40;;;;;;;;;;4693947;30;20053;-87
2023/09/22 10:25:14;;;;;;;2.35;1.92;;;;;;;;;;4707573;30;21846;-88
2023/09/22 10:27:57;;;;;;;2.38;2.17;;;;;;;;;;4713458;30;20087;-87
2023/09/22 10:30:44;;;;;;;4.63;2.33;;;;;;;;;;4716279;30;20061;-87
2023/09/22 10:33:16;;;;;;;2.30;2.10;;;;;;;;;;4695781;30;20307;-87
2023/09/22 10:35:45;;;;;;;2.10;1.90;;;;;;;;;;4733170;30;20061;-87
2023/09/22 10:38:11;;;;;;;3.15;2.28;;;;;;;;;;4718337;30;20044;-87
2023/09/22 10:40:40;;;;;;;2.78;1.77;;;;;;;;;;4718524;30;20110;-88
2023/09/22 10:43:07;;;;;;;1.65;1.60;;;;;;;;;;4718134;30;20060;-87
2023/09/22 10:45:35;;;;;;;2.10;1.90;;;;;;;;;;4718162;30;20053;-87
2023/09/22 10:48:04;;;;;;;3.40;1.60;;;;;;;;;;4690283;30;20144;-87
2023/09/22 10:50:33;;;;;;;3.97;2.25;;;;;;;;;;4717739;30;20112;-86
2023/09/22 10:53:07;;;;;;;2.40;1.75;;;;;;;;;;4718723;30;20052;-87
2023/09/22 10:55:35;;;;;;;2.17;1.60;;;;;;;;;;4717484;30;20045;-87
2023/09/22 10:58:05;;;;;;;4.22;2.22;;;;;;;;;;4717538;30;20069;-87
2023/09/22 11:00:32;;;;;;;3.67;1.67;;;;;;;;;;4732990;30;20044;-86
2023/09/22 11:03:11;;;;;;;1.77;1.67;;;;;;;;;;4724740;30;20522;-87
2023/09/22 11:05:37;;;;;;;1.83;1.70;;;;;;;;;;4720703;30;20135;-86
2023/09/22 11:08:30;;;;;;;1.90;1.80;;;;;;;;;;4706377;30;20049;-88
2023/09/22 11:10:57;;;;;;;2.03;1.92;;;;;;;;;;4685394;30;20071;-87
2023/09/22 11:13:23;;;;;;;2.58;2.22;;;;;;;;;;4713934;30;20127;-87
2023/09/22 11:15:57;;;;;;;2.05;1.85;;;;;;;;;;4723027;30;20056;-87
2023/09/22 11:18:23;;;;;;;2.25;2.03;;;;;;;;;;4700730;30;20056;-87
2023/09/22 11:20:50;;;;;;;2.58;2.03;;;;;;;;;;4724392;30;20082;-88
2023/09/22 11:23:16;;;;;;;2.58;2.38;;;16.50;1.00;;;;;;4709514;30;20099;-86
2023/09/22 11:25:42;;;;;;;4.22;2.40;;;;;;;;;;4727434;30;20122;-87
2023/09/22 11:28:09;;;;;;;8.88;3.38;;;;;;;;;;4729705;30;20057;-87
2023/09/22 11:30:36;;;;;;;2.53;1.83;;;;;;;;;;4733289;30;20064;-87
2023/09/22 11:33:02;;;;;;;2.00;1.90;;;;;;;;;;4710830;30;20113;-87
2023/09/22 11:35:30;;;;;;;2.10;2.00;;;;;;;;;;4751934;30;20048;-87
2023/09/22 11:37:56;;;;;;;2.47;2.28;;;;;;;;;;4735088;30;20052;-85
2023/09/22 11:40:25;;;;;;;2.40;2.30;;;;;;;;;;4751063;30;20055;-85
2023/09/22 11:42:51;;;;;;;3.70;2.28;;;;;;;;;;4718249;30;20066;-86
2023/09/22 11:45:24;;;;;;;2.28;2.17;;;;;;;;;;4736668;30;20052;-85
2023/09/22 11:48:02;;;;;;;3.83;3.13;;;;;;;;;;4735201;30;20084;-84
2023/09/22 11:50:30;;;;;;;2.08;1.98;;;;;;;;;;4720466;30;20502;-86
2023/09/22 11:53:17;;;;;;;2.28;2.08;;;16.70;1.00;;;;;;4735709;30;20053;-85
2023/09/22 11:55:45;;;;;;;1.98;1.88;;;;;;;;;;4720425;30;20049;-86
2023/09/22 11:58:12;;;;;;;2.08;1.98;;;;;;;;;;4736108;30;20065;-86
2023/09/22 12:00:38;;;;;;;4.80;2.25;;;;;;;;;;4735587;30;20123;-85
2023/09/22 12:03:05;;;;;;;2.53;1.98;;;;;;;;;;4740836;30;20049;-86
2023/09/22 12:05:31;;;;;;;1.75;1.65;;;;;;;;;;4737511;30;20084;-86
2023/09/22 12:07:57;;;;;;;1.73;1.63;;;;;;;;;;4753270;30;20059;-86
2023/09/22 12:10:23;;;;;;;3.55;1.42;;;;;;;;;;4738180;30;20067;-86
2023/09/22 12:12:49;;;;;;;2.33;2.13;;;;;;;;;;4723589;30;20538;-86
2023/09/22 12:15:15;;;;;;;2.03;1.92;;;;;;;;;;4723007;30;20174;-88
2023/09/22 12:17:42;;;;;;;1.70;1.60;;;;;;;;;;4737955;30;20132;-88
2023/09/22 12:20:08;;;;;;;3.33;1.88;;;;;;;;;;4730274;30;20044;-86
2023/09/22 12:22:34;;;;;;;2.35;2.15;;;;;;;;;;4719325;30;20063;-87
2023/09/22 12:25:00;;;;;;;2.67;2.25;;;;;;;;;;4720192;30;20570;-87
2023/09/22 12:27:27;;;;;;;3.20;1.92;;;;;;;;;;4720602;30;20518;-86
2023/09/22 12:29:56;;;;;;;3.67;2.20;;;;;;;;;;4706256;30;20135;-86
2023/09/22 12:32:22;;;;;;;1.98;1.70;;;;;;;;;;4720221;30;20056;-87
2023/09/22 12:34:50;;;;;;;1.52;1.48;;;;;;;;;;4726990;30;20048;-87
2023/09/22 12:37:16;;;;;;;1.95;1.67;;;;;;;;;;4719751;30;20049;-91
2023/09/22 12:39:42;;;;;;;2.75;1.98;;;;;;;;;;4704480;30;20495;-87
2023/09/22 12:42:08;;;;;;;2.45;1.77;;;;;;;;;;4673929;30;20089;-86
2023/09/22 12:44:35;;;;;;;1.85;1.75;;;;;;;;;;4716407;30;20053;-87
2023/09/22 12:47:02;;;;;;;2.60;1.85;;;;;;;;;;4731648;30;20158;-86
2023/09/22 12:49:28;;;;;;;2.00;1.90;;;;;;;;;;4685475;30;20048;-86
2023/09/22 12:51:54;;;;;;;4.18;1.80;;;;;;;;;;4713004;30;20057;-86
2023/09/22 12:54:20;;;;;;;7.55;1.98;;;;;;;;;;4686204;30;20058;-86
2023/09/22 12:56:46;;;;;;;4.20;2.15;;;;;;;;;;4698468;30;20139;-88
2023/09/22 12:59:12;;;;;;;1.90;1.80;;;;;;;;;;4733731;30;20059;-88
2023/09/22 13:01:39;;;;;;;1.88;1.77;;;;;;;;;;4716634;30;20049;-88
2023/09/22 13:04:05;;;;;;;2.63;2.10;;;;;;;;;;4703048;30;20052;-86
2023/09/22 13:06:31;;;;;;;2.20;1.75;;;;;;;;;;4732798;30;20045;-87
2023/09/22 13:08:59;;;;;;;3.08;2.20;;;;;;;;;;4705590;30;20110;-86
2023/09/22 13:11:25;;;;;;;1.70;1.60;;;;;;;;;;4690751;30;20053;-86
2023/09/22 13:13:51;;;;;;;3.60;1.50;;;;;;;;;;4705371;30;20465;-89
2023/09/22 13:16:18;;;;;;;2.13;1.92;;;;;;;;;;4691074;30;20068;-86
2023/09/22 13:18:46;;;;;;;1.95;1.75;;;;;;;;;;4705154;30;20052;-87
2023/09/22 13:21:15;;;;;;;1.98;1.70;;;;;;;;;;4705154;30;20072;-86
2023/09/22 13:23:42;;;;;;;1.60;1.50;;;;;;;;;;4719555;30;20132;-88
2023/09/22 13:26:08;;;;;;;2.28;1.90;;;;;;;;;;4734200;30;20195;-86
2023/09/22 13:28:34;;;;;;;4.72;1.40;;;;;;;;;;4689089;30;20053;-87
2023/09/22 13:31:02;;;;;;;1.75;1.30;;;;;;;;;;4694707;30;20045;-88
2023/09/22 13:33:28;;;;;;;1.10;1.02;;;;;;;;;;4724023;30;20145;-88
2023/09/22 13:35:58;;;;;;;1.52;1.33;;;;;;;;;;4712775;30;20056;-87
2023/09/22 13:38:24;;;;;;;3.20;1.00;;;;;;;;;;4715823;30;20059;-86
2023/09/22 13:40:50;;;;;;;1.20;1.10;;;;;;;;;;4716525;30;20064;-86
2023/09/22 13:43:16;;;;;;;0.85;0.85;;;;;;;;;;4703097;30;20057;-86
2023/09/22 13:45:42;;;;;;;1.65;1.08;;;;;;;;;;4719198;30;20048;-87
2023/09/22 13:48:09;;;;;;;1.05;0.85;;;15.90;1.00;;;;;;4718924;30;20117;-85
2023/09/22 13:50:38;;;;;;;1.02;1.02;;;;;;;;;;4703999;30;20057;-85
2023/09/22 13:53:06;;;;;;;5.95;1.35;;;;;;;;;;4723096;30;20056;-85
2023/09/22 13:55:33;;;;;;;3.65;1.60;;;;;;;;;;4691305;30;20151;-85
2023/09/22 13:58:00;;;;;;;1.27;1.08;;;;;;;;;;4721406;30;20060;-85
2023/09/22 14:00:26;;;;;;;2.65;1.63;;;;;;;;;;4692712;30;20064;-86
2023/09/22 14:02:53;;;;;;;1.33;1.15;;;;;;;;;;4708133;30;20083;-86
2023/09/22 14:05:22;;;;;;;4.55;1.60;;;;;;;;;;4708693;30;20053;-87
2023/09/22 14:07:48;;;;;;;3.53;1.25;;;;;;;;;;4691657;30;20063;-87
2023/09/22 14:10:14;;;;;;;1.38;0.95;;;;;;;;;;4679198;30;20057;-87
2023/09/22 14:12:41;;;;;;;1.88;0.85;;;;;;;;;;4706186;30;20051;-89
2023/09/22 14:15:07;;;;;;;1.08;1.02;;;;;;;;;;4680042;30;20415;-87
2023/09/22 14:17:34;;;;;;;2.85;0.98;;;;;;;;;;4702202;30;20653;-87
2023/09/22 14:20:00;;;;;;;3.20;1.15;;;;;;;;;;4691871;30;20064;-91
2023/09/22 14:22:27;;;;;;;3.30;0.90;;;;;;;;;;4692487;30;20144;-88
2023/09/22 14:24:55;;;;;;;0.80;0.80;;;;;;;;;;4692226;30;20056;-86
2023/09/22 14:27:21;;;;;;;1.10;1.00;;;;;;;;;;4693271;30;20995;-85
2023/09/22 14:29:47;;;;;;;1.67;1.40;;;;;;;;;;4708212;30;20049;-86